createdAt,value
2022-11-06T00:01:50.192Z,11.38
2022-11-06T00:04:16.771Z,11.38
2022-11-06T00:06:49.424Z,11.16
2022-11-06T00:09:19.118Z,11.27
2022-11-06T00:53:06.019Z,10.97
2022-11-06T00:55:32.571Z,10.76
2022-11-06T01:02:14.508Z,11.28
2022-11-06T01:04:41.326Z,10.62
2022-11-06T01:07:10.698Z,11.06
2022-11-06T01:48:13.922Z,11.09
2022-11-06T01:50:43.639Z,10.58
2022-11-06T01:53:12.431Z,10.57
2022-11-06T01:55:43.014Z,10.77
2022-11-06T01:58:14.899Z,10.93
2022-11-06T02:00:57.764Z,10.82
2022-11-06T02:04:37.902Z,10.92
2022-11-06T02:07:26.395Z,10.73
2022-11-06T02:09:53.197Z,10.70
2022-11-06T02:12:45.674Z,10.60
2022-11-06T02:15:36.274Z,10.81
2022-11-06T02:18:25.330Z,10.74
2022-11-06T02:23:48.848Z,10.87
2022-11-06T02:26:53.353Z,10.63
2022-11-06T02:29:33.101Z,10.91
2022-11-06T02:32:42.971Z,10.93
2022-11-06T02:35:35.144Z,10.82
2022-11-06T02:38:07.614Z,10.79
2022-11-06T02:40:52.207Z,10.65
2022-11-06T02:43:22.067Z,10.81
2022-11-06T02:45:57.111Z,10.61
2022-11-06T02:48:29.869Z,10.64
2022-11-06T03:13:10.499Z,11.06
2022-11-06T03:16:05.933Z,11.26
2022-11-06T03:18:43.916Z,11.25
2022-11-06T03:21:19.130Z,11.31
2022-11-06T03:23:58.155Z,11.08
2022-11-06T03:29:22.410Z,11.37
2022-11-06T03:31:55.224Z,11.04
2022-11-06T03:35:03.013Z,11.09
2022-11-06T03:42:43.112Z,10.80
2022-11-06T03:51:30.480Z,11.27
2022-11-06T05:14:39.423Z,11.90
2022-11-06T05:17:05.969Z,12.02
2022-11-06T05:19:32.590Z,11.82
2022-11-06T05:22:17.658Z,11.89
2022-11-06T05:24:44.417Z,11.92
2022-11-06T05:27:10.938Z,11.99
2022-11-06T05:29:38.370Z,11.84
2022-11-06T05:32:05.185Z,12.10
2022-11-06T05:34:31.770Z,11.96
2022-11-06T05:36:58.356Z,11.97
2022-11-06T05:39:43.272Z,12.06
2022-11-06T05:42:50.468Z,12.03
2022-11-06T05:45:16.989Z,12.05
2022-11-06T05:47:44.687Z,12.07
2022-11-06T05:50:11.358Z,11.97
2022-11-06T05:52:38.249Z,12.17
2022-11-06T05:55:13.210Z,12.02
2022-11-06T05:57:41.215Z,12.26
2022-11-06T06:00:12.214Z,12.24
2022-11-06T06:02:39.041Z,11.97
2022-11-06T06:05:06.410Z,12.10
2022-11-06T06:07:34.403Z,12.02
2022-11-06T06:10:01.032Z,11.91
2022-11-06T06:36:16.462Z,12.39
2022-11-06T06:38:43.142Z,12.51
2022-11-06T06:41:12.703Z,12.13
2022-11-06T06:43:39.399Z,12.50
2022-11-06T06:46:08.393Z,12.59
2022-11-06T06:51:24.195Z,12.55
2022-11-06T06:53:51.043Z,12.53
2022-11-06T06:56:17.634Z,12.67
2022-11-06T06:58:44.456Z,12.44
2022-11-06T07:01:11.510Z,12.48
2022-11-06T07:07:35.182Z,12.45
2022-11-06T07:10:05.985Z,12.61
2022-11-06T07:29:47.226Z,12.65
2022-11-06T07:32:13.917Z,12.39
2022-11-06T07:34:40.517Z,12.42
2022-11-06T07:37:07.929Z,12.50
2022-11-06T07:39:36.260Z,12.39
2022-11-06T07:42:02.901Z,12.33
2022-11-06T07:44:30.985Z,12.23
2022-11-06T07:46:57.551Z,12.21
2022-11-06T07:49:24.114Z,12.35
2022-11-06T07:51:50.918Z,12.35
2022-11-06T07:54:17.486Z,12.45
2022-11-06T08:45:17.583Z,12.38
2022-11-06T08:47:45.403Z,12.60
2022-11-06T08:50:12.054Z,12.72
2022-11-06T08:52:46.010Z,12.58
2022-11-06T09:14:23.194Z,13.09
2022-11-06T09:16:50.037Z,13.13
2022-11-06T09:19:16.867Z,13.38
2022-11-06T09:21:43.848Z,13.59
2022-11-06T09:24:10.717Z,13.62
2022-11-06T09:26:37.732Z,13.87
2022-11-06T09:34:15.614Z,13.36
2022-11-06T09:36:42.186Z,13.75
2022-11-06T09:39:08.952Z,13.46
2022-11-06T10:00:37.136Z,13.52
2022-11-06T10:03:05.846Z,14.02
2022-11-06T10:05:47.738Z,14.04
2022-11-06T12:46:40.500Z,15.63
2022-11-06T12:49:32.641Z,15.59
2022-11-06T12:52:22.721Z,15.53
2022-11-06T12:55:26.620Z,15.88
2022-11-06T12:58:04.048Z,16.04
2022-11-06T14:00:11.989Z,15.60
2022-11-06T14:06:06.279Z,15.55
2022-11-06T14:08:55.192Z,15.87
2022-11-06T14:35:33.470Z,15.46
2022-11-06T14:38:17.554Z,15.41
2022-11-06T14:40:44.749Z,15.35
2022-11-06T14:43:26.455Z,15.34
2022-11-06T14:45:58.712Z,15.37
2022-11-06T14:53:52.601Z,15.41
2022-11-06T14:56:32.632Z,15.39
2022-11-06T14:59:07.500Z,15.40
2022-11-06T15:01:37.285Z,15.33
2022-11-06T15:04:18.704Z,15.25
2022-11-06T15:06:50.267Z,15.18
2022-11-06T15:09:22.884Z,15.08
2022-11-06T15:11:58.259Z,15.05
2022-11-06T15:14:24.800Z,14.97
2022-11-06T15:16:55.770Z,14.86
2022-11-06T15:19:27.076Z,14.66
2022-11-06T15:22:14.310Z,14.50
2022-11-06T15:24:45.459Z,14.47
2022-11-06T15:27:17.021Z,14.49
2022-11-06T15:29:46.214Z,14.52
2022-11-06T15:32:28.329Z,14.46
2022-11-06T15:35:04.997Z,14.42
2022-11-06T15:37:48.033Z,14.38
2022-11-06T15:40:27.940Z,14.34
2022-11-06T15:42:58.021Z,14.33
2022-11-06T15:45:27.749Z,14.31
2022-11-06T15:48:03.326Z,14.30
2022-11-06T15:50:32.295Z,14.25
2022-11-06T15:53:21.489Z,14.23
2022-11-06T15:55:56.972Z,14.03
2022-11-06T15:58:31.033Z,13.94
2022-11-06T16:01:02.585Z,13.74
2022-11-06T16:03:32.714Z,13.70
2022-11-06T16:06:03.322Z,13.55
2022-11-06T16:08:32.208Z,13.34
2022-11-06T16:11:00.101Z,13.41
2022-11-06T16:13:29.998Z,13.41
2022-11-06T16:16:00.620Z,13.30
2022-11-06T16:18:39.660Z,13.26
2022-11-06T16:21:13.783Z,13.26
2022-11-06T16:23:44.905Z,13.39
2022-11-06T16:26:21.454Z,13.41
2022-11-06T16:28:50.488Z,13.42
2022-11-06T16:31:20.535Z,13.43
2022-11-06T16:34:33.832Z,13.49
2022-11-06T16:37:27.999Z,13.49
2022-11-06T16:39:56.005Z,13.38
2022-11-06T16:42:22.787Z,13.43
2022-11-06T16:44:51.002Z,13.49
2022-11-06T16:47:19.706Z,13.42
2022-11-06T16:49:53.990Z,13.34
2022-11-06T16:52:28.283Z,13.27
2022-11-06T16:55:21.088Z,13.38
2022-11-06T16:57:53.031Z,13.35
2022-11-06T17:00:19.492Z,13.42
2022-11-06T17:02:55.763Z,13.53
2022-11-06T17:05:25.087Z,13.55
2022-11-06T17:08:19.017Z,13.40
2022-11-06T17:10:47.154Z,12.95
2022-11-06T17:13:14.264Z,12.77
2022-11-06T17:15:43.001Z,12.64
2022-11-06T17:18:22.305Z,12.76
2022-11-06T17:20:53.355Z,12.94
2022-11-06T17:23:20.664Z,13.06
2022-11-06T17:25:48.880Z,13.13
2022-11-06T17:28:16.539Z,12.83
2022-11-06T17:30:43.091Z,12.83
2022-11-06T17:33:09.702Z,12.92
2022-11-06T17:35:36.515Z,12.99
2022-11-06T17:38:07.256Z,12.68
2022-11-06T17:40:34.286Z,12.49
2022-11-06T17:43:00.849Z,12.28
2022-11-06T17:45:27.408Z,12.17
2022-11-06T17:47:53.960Z,12.32
2022-11-06T17:50:26.092Z,12.41
2022-11-06T17:52:52.703Z,12.41
2022-11-06T17:55:19.366Z,12.45
2022-11-06T17:57:45.891Z,12.46
2022-11-06T18:00:13.011Z,12.12
2022-11-06T18:02:59.741Z,12.03
2022-11-06T18:05:26.106Z,11.85
2022-11-06T18:07:54.305Z,11.74
2022-11-06T18:10:22.898Z,11.90
2022-11-06T18:12:52.958Z,11.89
2022-11-06T18:15:19.488Z,11.93
2022-11-06T18:17:46.015Z,11.59
2022-11-06T18:20:12.580Z,11.73
2022-11-06T18:22:41.795Z,11.47
2022-11-06T18:25:08.366Z,11.61
2022-11-06T18:27:34.898Z,11.46
2022-11-06T18:30:02.227Z,11.52
2022-11-06T18:32:28.835Z,11.30
2022-11-06T18:34:55.367Z,11.08
2022-11-06T18:37:25.620Z,10.87
2022-11-06T18:39:52.369Z,10.84
2022-11-06T18:42:18.990Z,10.96
2022-11-06T18:44:45.541Z,11.14
2022-11-06T18:47:12.071Z,10.90
2022-11-06T18:49:38.651Z,10.95
2022-11-06T18:52:05.570Z,11.15
2022-11-06T18:54:32.140Z,11.39
2022-11-06T18:56:59.023Z,11.60
2022-11-06T18:59:25.618Z,11.68
2022-11-06T19:01:53.285Z,11.58
2022-11-06T19:04:22.040Z,11.57
2022-11-06T19:06:49.315Z,11.76
2022-11-06T19:09:15.966Z,11.66
2022-11-06T19:11:42.606Z,11.69
2022-11-06T19:14:09.368Z,11.95
2022-11-06T19:16:36.449Z,11.90
2022-11-06T19:19:05.775Z,12.04
2022-11-06T19:21:33.499Z,12.00
2022-11-06T19:24:04.065Z,12.03
2022-11-06T19:26:32.696Z,11.99
2022-11-06T19:29:00.620Z,11.95
2022-11-06T19:31:33.460Z,11.94
2022-11-06T19:34:01.649Z,12.28
2022-11-06T19:36:47.060Z,12.47
2022-11-06T19:39:14.236Z,12.61
2022-11-06T19:41:40.779Z,12.54
2022-11-06T19:44:09.430Z,12.63
2022-11-06T19:46:54.680Z,12.54
2022-11-06T19:50:06.268Z,12.66
2022-11-06T19:52:50.917Z,12.69
2022-11-06T19:55:26.914Z,12.65
2022-11-06T19:57:57.900Z,12.55
2022-11-06T20:00:24.752Z,12.42
2022-11-06T20:02:51.412Z,12.42
2022-11-06T20:05:18.326Z,12.17
2022-11-06T20:07:45.066Z,12.13
2022-11-06T20:10:11.677Z,12.13
2022-11-06T20:12:38.657Z,12.11
2022-11-06T20:15:05.783Z,11.97
2022-11-06T20:17:32.326Z,11.86
2022-11-06T20:19:58.935Z,11.54
2022-11-06T20:22:25.725Z,11.59
2022-11-06T20:24:52.448Z,11.65
2022-11-06T20:27:19.106Z,11.11
2022-11-06T20:29:45.850Z,10.92
2022-11-06T20:32:17.707Z,11.32
2022-11-06T20:34:45.585Z,11.55
2022-11-06T20:37:13.432Z,11.20
2022-11-06T20:39:42.576Z,11.34
2022-11-06T20:42:09.194Z,11.42
2022-11-06T20:44:35.783Z,11.43
2022-11-06T20:47:02.386Z,11.44
2022-11-06T20:49:28.926Z,11.49
2022-11-06T20:52:13.105Z,11.61
2022-11-06T20:54:46.370Z,11.55
2022-11-06T20:57:15.065Z,11.49
2022-11-06T20:59:42.556Z,11.60
2022-11-06T21:02:34.481Z,11.66
2022-11-06T21:05:14.943Z,11.61
2022-11-06T21:07:53.850Z,11.62
2022-11-06T21:10:20.378Z,11.61
2022-11-06T21:18:24.956Z,11.63
2022-11-06T21:20:52.321Z,11.58
2022-11-06T21:23:19.272Z,11.39
2022-11-06T21:25:46.361Z,11.30
2022-11-06T21:28:12.956Z,11.20
2022-11-06T21:30:44.507Z,11.00
2022-11-06T21:33:11.418Z,11.13
2022-11-06T21:41:11.630Z,10.93
2022-11-06T21:43:52.548Z,10.77
2022-11-06T21:46:21.054Z,10.77
2022-11-06T21:48:48.322Z,10.62
2022-11-06T21:59:25.211Z,10.33
2022-11-06T22:01:51.961Z,10.53
2022-11-06T22:04:18.707Z,10.49
2022-11-06T22:06:45.354Z,10.36
2022-11-06T22:09:13.715Z,10.07
2022-11-06T22:11:52.670Z,10.12
2022-11-06T22:14:19.245Z,10.26
2022-11-06T22:16:49.328Z,10.24
2022-11-06T22:27:21.490Z,10.11
2022-11-06T22:29:48.094Z,9.98
2022-11-06T22:32:14.754Z,9.82
2022-11-06T22:34:41.306Z,9.58
2022-11-06T22:37:07.934Z,9.67
2022-11-06T22:39:34.517Z,9.87
2022-11-06T22:42:12.975Z,9.79
2022-11-06T22:44:39.553Z,9.78
2022-11-06T22:47:06.602Z,9.82
2022-11-06T22:49:33.138Z,9.74
2022-11-06T22:52:08.454Z,9.72
2022-11-06T23:14:58.579Z,10.15
2022-11-06T23:17:26.428Z,10.29
2022-11-06T23:20:17.989Z,10.29
2022-11-06T23:23:15.777Z,10.49
2022-11-06T23:26:10.358Z,10.54
2022-11-06T23:28:37.015Z,10.61
2022-11-06T23:31:08.294Z,10.64
2022-11-06T23:33:35.379Z,10.69
2022-11-06T23:36:10.214Z,10.80
2022-11-06T23:38:37.533Z,10.78
2022-11-06T23:41:42.840Z,10.85
2022-11-06T23:44:28.141Z,10.69
2022-11-06T23:47:13.398Z,10.81
2022-11-06T23:55:49.461Z,11.09
2022-11-06T23:58:15.999Z,11.16
